Detall de PIREP

Printer-friendly versionPDF version

[2013/06/19 09:45:00]
Flight IATA:CT1004
Pilot Number:042
Company ICAO:CAT
Aircraft Type:C172/A
PAX:2
Departing Airport: LFMP
Destination Airport: LFMT
Alternate Airport:LFML
Online: VATSIM
Route:KELAM
Flight Level:FL070
No Slew and time accel
No pause
Crash detect
Detect pilot in Cockpit between each 30 and 45 minutes
09:45 Zero fuel Weight: 2010 Lbs, Fuel Weight: 335 Lbs
09:45 VATSIM:LFMP 190930Z 09009KT 060V120 9999 BKN020 23/17 Q1011
09:45 VATSIM:LFMT 190930Z 13015KT 9000 OVC008 21/19 Q1012
09:46 VOICE CATALONIAN/FLAMA DEL CANIGO
09:51 Parking Brakes off
09:54 Take-off
09:54 Take off Weight: 2344 Lbs
09:54 Wind: 000º @ 002 Knots Heading: 328º
09:54 POS N42º 44´ 42´´ E002º 52´ 09´´
09:54 Flaps:1 at 72 Knots
09:55 Flaps:0 at 74 Knots
10:07 TOC
10:07 Fuel Weight: 320 Lb
10:07 TOD
10:07 Fuel Weight: 320 Lb
10:08 TOC
10:08 Fuel Weight: 319 Lb
10:08 TOD
10:08 Fuel Weight: 319 Lb
10:09 Wind:305º@011 Knots Heading: 354º Ground Speed: 100 Knots Altitude 6820 ft
10:09 TOC
10:09 Fuel Weight: 319 Lb
10:11 TOD
10:11 Fuel Weight: 317 Lb
10:24 Wind:099º@006 Knots Heading: 072º Ground Speed: 113 Knots Altitude 2329 ft
10:39 Wind:119º@021 Knots Heading: 048º Ground Speed: 105 Knots Altitude 1295 ft
10:41 Flaps:1 at 103 Knots
10:41 Flaps:2 at 84 Knots
10:42 TouchDown:Rate -114 ft/min Speed: 65 Knots
10:42 Flaps:3 at 57 Knots
10:43 VATSIM:LFMT 191030Z 13014KT 9000 OVC007 22/19 Q1013
10:43 Land
10:43 Wind:119º@021 Knots
10:43 Heading: 272º
10:43 Flight Duration: 00:49
10:43 Landing Weight: 2299 Lbs
10:43 POS N43º 34´ 43´´ E003º 58´ 16´´
10:47 Parking brakes on
10:47 Block to Block Duration: 00:56
10:47 Final Fuel: 288 Lbls
10:47 Spent Fuel: 46 Lbls
10:47 Flight Length: 87 NM
10:47 TOD Land Length: 60 NM

Exportar CSV

Powered by Drupal - Modified by Danger4k